Time;durP1;ratioP1;P1;durP2;ratioP2;P2;SDS_P1;SDS_P2;PMS_P1;PMS_P2;Temp;Humidity;BMP_temperature;BMP_pressure;BME280_temperature;BME280_humidity;BME280_pressure;Samples;Min_cycle;Max_cycle;Signal;HPM_P1;HPM_P2
2022/06/05 00:01:14;;;;;;;3.33;2.88;;;;;;;;;;4999380;28;20382;-45
2022/06/05 00:03:43;;;;;;;3.50;3.00;;;;;;;;;;5000942;28;20027;-47
2022/06/05 00:06:15;;;;;;;3.28;2.92;;;;;;;;;;4999569;28;20072;-45
2022/06/05 00:08:49;;;;;;;3.60;2.85;;;;;;;;;;5006135;28;20052;-45
2022/06/05 00:11:16;;;;;;;4.28;2.70;;;;;;;;;;5000484;28;20026;-46
2022/06/05 00:13:46;;;;;;;3.63;3.10;;;;;;;;;;4997808;28;20030;-46
2022/06/05 00:16:13;;;;;;;3.75;2.60;;;;;;;;;;5003461;28;20367;-45
2022/06/05 00:18:41;;;;;;;3.53;2.95;;;;;;;;;;5002783;28;20348;-46
2022/06/05 00:21:07;;;;;;;3.20;2.85;;;;;;;;;;5002840;28;20109;-47
2022/06/05 00:23:33;;;;;;;3.55;2.85;;;;;;;;;;5001276;28;20168;-45
2022/06/05 00:26:18;;;;;;;5.50;3.20;;;;;;;;;;5000389;28;20041;-45
2022/06/05 00:28:50;;;;;;;4.18;3.00;;;;;;;;;;5012279;28;20356;-45
2022/06/05 00:31:24;;;;;;;4.60;3.75;;;;;;;;;;5018723;28;20034;-47
2022/06/05 00:33:50;;;;;;;4.45;3.45;;;;;;;;;;5013725;28;20026;-45
2022/06/05 00:36:28;;;;;;;5.95;3.63;;;;;;;;;;5013614;28;20058;-46
2022/06/05 00:38:54;;;;;;;3.92;3.10;;;;;;;;;;5013172;28;20427;-45
2022/06/05 00:41:44;;;;;;;3.78;3.38;;;;;;;;;;5013135;28;20445;-45
2022/06/05 00:44:12;;;;;;;4.63;3.35;;;;;;;;;;5005863;28;20419;-45
2022/06/05 00:46:38;;;;;;;4.18;3.17;;;;;;;;;;4991935;28;20043;-45
2022/06/05 00:49:04;;;;;;;4.70;3.60;;;;;;;;;;4994388;28;20038;-46
2022/06/05 00:51:30;;;;;;;4.38;3.78;;;;;;;;;;4993409;28;20034;-45
2022/06/05 00:53:56;;;;;;;4.70;3.33;;;;;;;;;;4994104;28;20113;-46
2022/06/05 00:56:22;;;;;;;3.70;3.25;;;;;;;;;;4993047;28;20026;-45
2022/06/05 00:58:48;;;;;;;4.40;3.80;;;;;;;;;;4994482;28;20035;-45
2022/06/05 01:01:14;;;;;;;6.05;3.65;;;;;;;;;;4994329;28;20054;-45
2022/06/05 01:03:40;;;;;;;4.25;3.30;;;;;;;;;;4993814;28;20375;-46
2022/06/05 01:06:07;;;;;;;4.07;3.67;;;;;;;;;;4994086;28;20041;-47
2022/06/05 01:08:33;;;;;;;4.68;3.75;;;;;;;;;;4992104;28;20365;-45
2022/06/05 01:11:02;;;;;;;4.40;3.45;;;;;;;;;;4993781;28;20030;-45
2022/06/05 01:13:31;;;;;;;3.63;3.25;;;;;;;;;;4992932;28;20101;-47
2022/06/05 01:15:58;;;;;;;3.90;3.35;;;;;;;;;;4993614;28;20074;-45
2022/06/05 01:18:30;;;;;;;4.10;3.63;;;;;;;;;;4993137;28;20030;-46
2022/06/05 01:21:02;;;;;;;3.45;3.15;;;;;;;;;;4988568;28;20041;-49
2022/06/05 01:23:28;;;;;;;;;;;;;;;;;;4993113;28;20105;-45
2022/06/05 01:26:01;;;;;;;5.30;3.67;;;;;;;;;;4978078;28;22466;-45
2022/06/05 01:28:29;;;;;;;4.05;3.65;;;;;;;;;;4983453;28;20030;-45
2022/06/05 01:30:58;;;;;;;4.15;3.30;;;;;;;;;;4983760;28;20026;-47
2022/06/05 01:33:26;;;;;;;4.55;4.05;;;;;;;;;;4979384;28;20026;-45
2022/06/05 01:35:58;;;;;;;4.78;3.10;;;;;;;;;;4982615;28;20038;-46
2022/06/05 01:38:45;;;;;;;4.55;3.55;;;;;;;;;;4983575;28;20031;-47
2022/06/05 01:41:14;;;;;;;4.03;3.38;;;;;;;;;;4974458;28;20118;-49
2022/06/05 01:43:42;;;;;;;3.28;2.97;;;;;;;;;;4980230;28;20030;-47
2022/06/05 01:46:08;;;;;;;4.43;3.45;;;;;;;;;;4988581;28;20054;-47
2022/06/05 01:48:55;;;;;;;4.55;3.30;;;;;;;;;;5008654;28;20026;-48
2022/06/05 01:51:23;;;;;;;5.53;3.58;;;;;;;;;;5011024;28;20057;-46
2022/06/05 01:53:51;;;;;;;4.05;3.35;;;;;;;;;;5012479;28;20026;-45
2022/06/05 01:56:20;;;;;;;3.67;3.30;;;;;;;;;;5012528;28;20352;-44
2022/06/05 01:58:52;;;;;;;3.75;3.33;;;;;;;;;;5011603;28;20084;-45
2022/06/05 02:01:27;;;;;;;3.80;3.50;;;;;;;;;;5012914;28;20022;-45
2022/06/05 02:03:56;;;;;;;4.00;3.60;;;;;;;;;;5011942;28;20037;-45
2022/06/05 02:06:25;;;;;;;3.90;2.85;;;;;;;;;;5016134;28;20022;-47
2022/06/05 02:09:00;;;;;;;3.92;3.10;;;;;;;;;;5011825;28;20025;-46
2022/06/05 02:11:27;;;;;;;5.35;3.50;;;;;;;;;;5011738;28;20030;-45
2022/06/05 02:13:56;;;;;;;3.60;3.30;;;;;;;;;;5011350;28;20380;-45
2022/06/05 02:16:22;;;;;;;4.93;2.92;;;;;;;;;;5011731;28;20034;-47
2022/06/05 02:18:48;;;;;;;5.78;3.10;;;;;;;;;;5011809;28;20029;-45
2022/06/05 02:21:14;;;;;;;6.45;2.97;;;;;;;;;;5004024;28;20033;-45
2022/06/05 02:23:40;;;;;;;3.78;3.33;;;;;;;;;;5010812;28;20041;-45
2022/06/05 02:26:08;;;;;;;3.15;2.85;;;;;;;;;;5012164;28;20025;-45
2022/06/05 02:28:34;;;;;;;4.90;3.40;;;;;;;;;;5011132;28;20120;-46
2022/06/05 02:31:00;;;;;;;3.95;3.33;;;;;;;;;;5012300;28;20026;-45
2022/06/05 02:33:49;;;;;;;4.18;3.60;;;;;;;;;;5011678;28;20028;-46
2022/06/05 02:36:30;;;;;;;6.05;3.05;;;;;;;;;;5012052;28;20120;-45
2022/06/05 02:39:07;;;;;;;4.00;3.20;;;;;;;;;;5011874;28;20025;-45
2022/06/05 02:41:39;;;;;;;3.85;3.35;;;;;;;;;;5011205;28;20455;-46
2022/06/05 02:44:31;;;;;;;5.25;2.80;;;;;;;;;;5010884;28;20375;-45
2022/06/05 02:46:58;;;;;;;;;;;;;;;;;;5011437;28;20057;-45
2022/06/05 02:49:32;;;;;;;3.95;2.85;;;;;;;;;;4995808;28;19955;-46
2022/06/05 02:52:01;;;;;;;3.50;3.20;;;;;;;;;;4997467;28;20030;-46
2022/06/05 02:54:27;;;;;;;4.60;3.38;;;;;;;;;;4998683;28;20034;-47
2022/06/05 02:56:55;;;;;;;3.50;3.10;;;;;;;;;;5004795;28;20069;-45
2022/06/05 02:59:22;;;;;;;3.83;3.53;;;;;;;;;;4996930;28;20098;-45
2022/06/05 03:04:33;;;;;;;4.43;3.10;;;;;;;;;;4994135;28;20038;-44
2022/06/05 03:06:59;;;;;;;3.28;2.97;;;;;;;;;;5008970;28;20061;-45
2022/06/05 03:09:25;;;;;;;3.15;2.85;;;;;;;;;;5010653;28;20034;-45
2022/06/05 03:11:51;;;;;;;3.53;3.22;;;;;;;;;;5011022;28;20029;-45
2022/06/05 03:14:18;;;;;;;3.30;3.00;;;;;;;;;;5010629;28;20038;-45
2022/06/05 03:16:44;;;;;;;4.28;3.60;;;;;;;;;;5010688;28;20034;-45
2022/06/05 03:19:10;;;;;;;4.35;2.97;;;;;;;;;;5011352;28;20367;-45
2022/06/05 03:21:37;;;;;;;5.25;3.13;;;;;;;;;;5010872;28;20029;-45
2022/06/05 03:24:03;;;;;;;4.68;3.42;;;;;;;;;;4985403;28;20423;-45
2022/06/05 03:26:30;;;;;;;3.35;3.05;;;;;;;;;;5010267;28;20471;-45
2022/06/05 03:28:56;;;;;;;3.08;2.80;;;;;;;;;;5010587;28;20022;-46
2022/06/05 03:31:22;;;;;;;3.45;3.13;;;;;;;;;;5011019;28;20030;-46
2022/06/05 03:33:48;;;;;;;3.53;3.22;;;;;;;;;;5011137;28;20022;-45
2022/06/05 03:36:14;;;;;;;3.75;3.17;;;;;;;;;;5011072;28;20437;-46
2022/06/05 03:38:41;;;;;;;3.58;3.25;;;;;;;;;;5010194;28;20084;-46
2022/06/05 03:41:08;;;;;;;4.63;3.80;;;;;;;;;;4993041;28;20033;-44
2022/06/05 03:43:34;;;;;;;3.80;3.50;;;;;;;;;;5012123;28;20026;-47
2022/06/05 03:46:01;;;;;;;4.05;3.00;;;;;;;;;;5014744;28;20050;-45
2022/06/05 03:48:27;;;;;;;3.28;2.97;;;;;;;;;;5014643;28;20125;-46
2022/06/05 03:50:53;;;;;;;3.50;3.20;;;;;;;;;;5015087;28;20106;-48
2022/06/05 03:53:19;;;;;;;3.53;3.22;;;;;;;;;;5014639;28;20459;-46
2022/06/05 03:55:45;;;;;;;6.68;3.60;;;;;;;;;;5014114;28;20108;-45
2022/06/05 03:58:11;;;;;;;3.78;3.40;;;;;;;;;;5014968;28;20034;-46
2022/06/05 04:00:37;;;;;;;4.65;3.25;;;;;;;;;;5014670;28;20029;-45
2022/06/05 04:03:03;;;;;;;3.33;2.97;;;;;;;;;;5014744;28;20438;-47
2022/06/05 04:05:29;;;;;;;3.63;3.33;;;;;;;;;;5009982;28;20073;-46
2022/06/05 04:07:55;;;;;;;4.60;3.42;;;;;;;;;;4998633;28;20152;-45
2022/06/05 04:10:21;;;;;;;4.05;3.50;;;;;;;;;;5005193;28;20030;-45
2022/06/05 04:12:48;;;;;;;3.85;3.45;;;;;;;;;;5003948;28;20077;-45
2022/06/05 04:15:14;;;;;;;10.88;3.40;;;;;;;;;;4999998;28;20033;-45
2022/06/05 04:17:40;;;;;;;4.22;3.50;;;;;;;;;;5000106;28;20034;-46
2022/06/05 04:20:07;;;;;;;3.75;3.28;;;;;;;;;;5004614;28;20109;-44
2022/06/05 04:22:37;;;;;;;3.47;3.17;;;;;;;;;;5002180;28;20056;-46
2022/06/05 04:25:04;;;;;;;4.75;3.80;;;;;;;;;;5004609;28;20036;-45
2022/06/05 04:27:30;;;;;;;4.30;3.17;;;;;;;;;;5001247;28;20068;-47
2022/06/05 04:29:58;;;;;;;3.90;3.47;;;;;;;;;;5016452;28;20113;-44
2022/06/05 04:32:24;;;;;;;3.60;3.30;;;;;;;;;;5013976;28;20061;-49
2022/06/05 04:34:53;;;;;;;3.42;3.13;;;;;;;;;;5013440;28;20064;-47
2022/06/05 04:37:19;;;;;;;4.22;3.53;;;;;;;;;;5014504;28;20096;-45
2022/06/05 04:39:45;;;;;;;3.67;3.38;;;;;;;;;;5013222;28;20108;-44
2022/06/05 04:42:11;;;;;;;3.92;3.53;;;;;;;;;;5014087;28;20511;-44
2022/06/05 04:44:37;;;;;;;4.25;3.53;;;;;;;;;;5015879;28;20060;-44
2022/06/05 04:47:03;;;;;;;3.90;3.53;;;;;;;;;;5012834;28;20060;-44
2022/06/05 04:49:29;;;;;;;3.80;3.33;;;;;;;;;;5013815;28;20069;-44
2022/06/05 04:51:55;;;;;;;4.00;3.70;;;;;;;;;;5013534;28;20050;-45
2022/06/05 04:54:21;;;;;;;6.25;3.33;;;;;;;;;;5007390;28;20065;-45
2022/06/05 04:56:47;;;;;;;4.13;3.60;;;;;;;;;;5012855;28;20084;-44
2022/06/05 04:59:14;;;;;;;4.80;3.80;;;;;;;;;;5013104;28;20033;-44
2022/06/05 05:01:40;;;;;;;4.60;3.65;;;;;;;;;;5011601;28;20037;-44
2022/06/05 05:04:07;;;;;;;3.63;3.33;;;;;;;;;;5013602;28;20045;-44
2022/06/05 05:06:34;;;;;;;4.03;3.63;;;;;;;;;;5012407;28;20088;-46
2022/06/05 05:09:00;;;;;;;4.68;3.20;;;;;;;;;;5013668;28;20054;-44
2022/06/05 05:11:26;;;;;;;4.50;3.85;;;;;;;;;;5013238;28;20056;-44
2022/06/05 05:13:53;;;;;;;4.10;3.70;;;;;;;;;;5012738;28;20622;-44
2022/06/05 05:16:19;;;;;;;3.75;3.40;;;;;;;;;;5013542;28;20605;-47
2022/06/05 05:18:45;;;;;;;4.88;3.35;;;;;;;;;;5007976;28;20034;-45
2022/06/05 05:21:16;;;;;;;4.28;3.40;;;;;;;;;;5012421;28;20087;-45
2022/06/05 05:23:43;;;;;;;3.88;3.47;;;;;;;;;;4995347;28;20479;-44
2022/06/05 05:26:10;;;;;;;4.35;3.95;;;;;;;;;;5013173;28;20065;-44
2022/06/05 05:28:36;;;;;;;4.10;3.70;;;;;;;;;;5006893;28;20022;-46
2022/06/05 05:31:02;;;;;;;4.65;3.50;;;;;;;;;;5003314;28;20033;-44
2022/06/05 05:33:28;;;;;;;4.35;3.83;;;;;;;;;;4999594;28;20041;-45
2022/06/05 05:35:54;;;;;;;8.00;3.80;;;;;;;;;;4997931;28;20041;-48
2022/06/05 05:38:20;;;;;;;3.78;3.45;;;;;;;;;;5003956;28;20483;-43
2022/06/05 05:43:33;;;;;;;5.90;3.30;;;;;;;;;;5000161;28;20069;-47
2022/06/05 05:45:59;;;;;;;4.90;3.58;;;;;;;;;;4999012;28;20542;-45
2022/06/05 05:48:25;;;;;;;4.95;3.80;;;;;;;;;;5002627;28;20030;-45
2022/06/05 05:50:51;;;;;;;5.28;3.78;;;;;;;;;;4996637;28;20097;-46
2022/06/05 05:53:17;;;;;;;4.95;4.30;;;;;;;;;;5018224;28;20113;-44
2022/06/05 05:55:42;;;;;;;6.22;4.25;;;;;;;;;;5011734;28;20459;-45
2022/06/05 05:58:09;;;;;;;5.95;3.92;;;;;;;;;;5016932;28;20026;-46
2022/06/05 06:00:35;;;;;;;3.97;3.38;;;;;;;;;;5012218;28;20029;-46
2022/06/05 06:03:01;;;;;;;4.15;3.72;;;;;;;;;;5011695;28;20096;-45
2022/06/05 06:05:27;;;;;;;6.25;4.38;;;;;;;;;;5011653;28;20034;-46
2022/06/05 06:07:53;;;;;;;3.60;3.30;;;;;;;;;;5011203;28;20030;-45
2022/06/05 06:10:19;;;;;;;3.90;3.60;;;;;;;;;;5013302;28;20030;-46
2022/06/05 06:12:45;;;;;;;5.90;3.50;;;;;;;;;;5011575;28;20022;-45
2022/06/05 06:15:11;;;;;;;5.22;3.88;;;;;;;;;;5012824;28;20034;-45
2022/06/05 06:17:37;;;;;;;4.25;3.60;;;;;;;;;;5010894;28;20386;-45
2022/06/05 06:20:04;;;;;;;4.07;3.67;;;;;;;;;;5011710;28;20032;-43
2022/06/05 06:22:31;;;;;;;4.80;3.72;;;;;;;;;;5011678;28;20100;-46
2022/06/05 06:24:57;;;;;;;3.97;3.22;;;;;;;;;;5011792;28;20092;-45
2022/06/05 06:27:22;;;;;;;3.50;3.20;;;;;;;;;;5011682;28;20065;-45
2022/06/05 06:29:48;;;;;;;3.65;3.30;;;;;;;;;;5011763;28;20026;-44
2022/06/05 06:32:15;;;;;;;4.35;3.58;;;;;;;;;;5012228;28;20026;-45
2022/06/05 06:34:41;;;;;;;3.65;3.33;;;;;;;;;;5011078;28;20439;-45
2022/06/05 06:37:07;;;;;;;5.22;3.42;;;;;;;;;;5012018;28;20026;-45
2022/06/05 06:39:33;;;;;;;3.20;2.90;;;;;;;;;;5011998;28;20038;-44
2022/06/05 06:41:59;;;;;;;4.15;3.17;;;;;;;;;;5011397;28;20037;-44
2022/06/05 06:44:26;;;;;;;4.15;3.28;;;;;;;;;;5012630;28;20025;-46
2022/06/05 06:46:52;;;;;;;3.90;2.83;;;;;;;;;;5009636;28;20081;-44
2022/06/05 06:49:18;;;;;;;3.05;2.65;;;;;;;;;;5011228;28;20026;-46
2022/06/05 06:51:44;;;;;;;4.20;2.40;;;;;;;;;;5001822;28;20032;-48
2022/06/05 06:54:10;;;;;;;5.28;2.85;;;;;;;;;;5006517;28;20030;-46
2022/06/05 06:56:36;;;;;;;5.93;3.47;;;;;;;;;;5003679;28;20057;-44
2022/06/05 06:59:03;;;;;;;4.28;2.83;;;;;;;;;;5004443;28;20117;-46
2022/06/05 07:01:29;;;;;;;3.38;3.00;;;;;;;;;;4995843;28;20049;-45
2022/06/05 07:03:55;;;;;;;2.70;2.25;;;;;;;;;;4999602;28;20026;-45
2022/06/05 07:06:21;;;;;;;5.95;2.35;;;;;;;;;;5001502;28;20053;-45
2022/06/05 07:08:49;;;;;;;2.80;2.33;;;;;;;;;;4998169;28;20049;-47
2022/06/05 07:11:15;;;;;;;4.78;2.35;;;;;;;;;;5000087;28;20068;-45
2022/06/05 07:13:41;;;;;;;3.13;2.05;;;;;;;;;;4995736;28;20107;-47
2022/06/05 07:16:09;;;;;;;2.42;2.22;;;;;;;;;;4999509;28;20038;-45
2022/06/05 07:18:35;;;;;;;3.35;2.10;;;;;;;;;;4999791;28;20403;-46
2022/06/05 07:21:11;;;;;;;2.25;1.90;;;;;;;;;;4991404;28;20185;-45
2022/06/05 07:23:38;;;;;;;3.08;2.10;;;;;;;;;;5011015;28;20049;-49
2022/06/05 07:26:04;;;;;;;2.55;2.33;;;;;;;;;;5010069;28;20483;-45
2022/06/05 07:28:30;;;;;;;4.05;2.30;;;;;;;;;;4993917;28;20442;-47
2022/06/05 07:30:56;;;;;;;2.35;1.77;;;;;;;;;;5010338;28;20375;-46
2022/06/05 07:33:23;;;;;;;2.90;1.90;;;;;;;;;;5010415;28;20426;-45
2022/06/05 07:35:55;;;;;;;2.90;1.98;;;;;;;;;;5010482;28;20093;-45
2022/06/05 07:38:21;;;;;;;2.83;2.20;;;;;;;;;;5014205;28;20359;-45
2022/06/05 07:40:47;;;;;;;4.18;2.63;;;;;;;;;;5013928;28;20048;-45
2022/06/05 07:43:13;;;;;;;3.03;1.80;;;;;;;;;;5010514;28;21182;-46
2022/06/05 07:45:39;;;;;;;2.88;1.98;;;;;;;;;;5011530;28;20042;-45
2022/06/05 07:48:05;;;;;;;4.88;2.78;;;;;;;;;;5010317;28;20038;-45
2022/06/05 07:50:31;;;;;;;5.28;2.22;;;;;;;;;;5011059;28;20029;-46
2022/06/05 07:55:42;;;;;;;4.88;1.70;;;;;;;;;;5006810;28;20041;-46
2022/06/05 07:58:08;;;;;;;3.42;1.95;;;;;;;;;;5010002;28;20387;-45
2022/06/05 08:00:34;;;;;;;3.42;2.00;;;;;;;;;;5011375;28;20022;-45
2022/06/05 08:03:00;;;;;;;4.03;2.00;;;;;;;;;;5009656;28;20502;-46
2022/06/05 08:05:26;;;;;;;2.42;1.95;;;;;;;;;;5009946;28;20057;-46
2022/06/05 08:07:52;;;;;;;7.93;1.90;;;;;;;;;;5009999;28;20030;-46
2022/06/05 08:10:18;;;;;;;7.40;2.42;;;;;;;;;;5010687;28;20077;-46
2022/06/05 08:12:45;;;;;;;2.13;1.50;;;;;;;;;;5010623;28;20030;-48
2022/06/05 08:15:13;;;;;;;3.45;1.80;;;;;;;;;;5014022;28;20049;-47
2022/06/05 08:17:40;;;;;;;3.47;1.92;;;;;;;;;;5010970;28;20096;-48
2022/06/05 08:20:07;;;;;;;3.30;1.85;;;;;;;;;;5010003;28;20025;-49
2022/06/05 08:22:33;;;;;;;3.60;1.70;;;;;;;;;;5000088;28;20033;-47
2022/06/05 08:24:59;;;;;;;3.47;1.90;;;;;;;;;;4999695;28;20022;-48
2022/06/05 08:27:26;;;;;;;3.45;1.63;;;;;;;;;;4996078;28;20467;-48
2022/06/05 08:29:55;;;;;;;1.98;1.60;;;;;;;;;;4996760;28;20026;-48
2022/06/05 08:32:22;;;;;;;3.05;1.40;;;;;;;;;;5003629;28;20029;-45
2022/06/05 08:34:48;;;;;;;2.72;1.70;;;;;;;;;;5004730;28;20034;-48
2022/06/05 08:42:45;;;;;;;1.73;1.40;;;;;;;;;;4997714;28;20040;-47
2022/06/05 08:45:14;;;;;;;2.50;1.45;;;;;;;;;;5001239;28;20030;-46
2022/06/05 08:47:48;;;;;;;2.47;1.60;;;;;;;;;;5013516;28;20054;-46
2022/06/05 08:50:13;;;;;;;1.80;1.30;;;;;;;;;;5017792;28;20101;-48
2022/06/05 08:52:48;;;;;;;2.55;1.10;;;;;;;;;;5013357;28;20403;-46
2022/06/05 08:55:26;;;;;;;1.70;1.20;;;;;;;;;;5013449;28;20057;-48
2022/06/05 08:57:54;;;;;;;2.80;1.10;;;;;;;;;;5018192;28;20037;-48
2022/06/05 09:00:32;;;;;;;1.80;1.15;;;;;;;;;;5013727;28;20080;-47
2022/06/05 09:02:58;;;;;;;2.47;1.35;;;;;;;;;;5017046;28;20108;-45
2022/06/05 09:05:27;;;;;;;2.25;1.27;;;;;;;;;;5013993;28;20450;-49
2022/06/05 09:07:56;;;;;;;2.58;1.75;;;;;;;;;;5011918;28;20025;-49
2022/06/05 09:10:29;;;;;;;2.45;1.15;;;;;;;;;;5013758;28;20029;-48
2022/06/05 09:12:59;;;;;;;2.75;1.40;;;;;;;;;;5005341;28;20118;-45
2022/06/05 09:15:26;;;;;;;2.65;1.15;;;;;;;;;;5013355;28;20022;-49
2022/06/05 09:17:54;;;;;;;1.90;1.10;;;;;;;;;;5012533;28;20038;-47
2022/06/05 09:20:23;;;;;;;1.65;1.30;;;;;;;;;;5012188;28;21022;-49
2022/06/05 09:22:57;;;;;;;1.92;1.20;;;;;;;;;;5012498;28;20036;-46
2022/06/05 09:25:39;;;;;;;2.50;1.15;;;;;;;;;;5013470;28;20357;-46
2022/06/05 09:28:24;;;;;;;3.08;1.00;;;;;;;;;;5012084;28;20045;-45
2022/06/05 09:30:50;;;;;;;3.03;1.35;;;;;;;;;;5012232;28;20105;-46
2022/06/05 09:33:19;;;;;;;1.33;0.95;;;;;;;;;;5016963;28;20018;-47
2022/06/05 09:35:48;;;;;;;1.15;0.93;;;;;;;;;;5012289;28;20422;-48
2022/06/05 09:38:24;;;;;;;2.92;1.40;;;;;;;;;;5007788;28;20030;-45
2022/06/05 09:40:59;;;;;;;2.05;0.88;;;;;;;;;;5011908;28;20044;-47
2022/06/05 09:43:25;;;;;;;2.58;1.05;;;;;;;;;;5013024;28;20053;-51
2022/06/05 09:46:08;;;;;;;1.25;0.93;;;;;;;;;;5001272;28;20080;-49
2022/06/05 09:48:49;;;;;;;1.45;1.10;;;;;;;;;;4997594;28;20030;-47
2022/06/05 09:51:16;;;;;;;3.47;1.40;;;;;;;;;;4996502;28;20140;-47
2022/06/05 09:53:45;;;;;;;4.40;2.17;;;;;;;;;;5000794;28;20034;-46
2022/06/05 09:56:25;;;;;;;1.30;1.08;;;;;;;;;;5003363;28;20523;-48
2022/06/05 09:59:09;;;;;;;1.90;1.20;;;;;;;;;;5001902;28;20038;-50
2022/06/05 10:01:47;;;;;;;2.42;1.08;;;;;;;;;;4999377;28;20022;-47
2022/06/05 10:04:13;;;;;;;1.42;0.90;;;;;;;;;;5000706;28;20029;-49
2022/06/05 10:06:41;;;;;;;5.50;1.52;;;;;;;;;;5007221;28;20029;-45
2022/06/05 10:09:07;;;;;;;18.83;2.08;;;;;;;;;;5010462;28;20037;-45
2022/06/05 10:11:42;;;;;;;1.70;1.00;;;;;;;;;;5015587;28;20030;-50
2022/06/05 10:14:21;;;;;;;1.60;1.10;;;;;;;;;;5011743;28;20026;-46
2022/06/05 10:17:05;;;;;;;1.10;0.90;;;;;;;;;;5012538;28;20079;-47
2022/06/05 10:19:31;;;;;;;0.95;0.90;;;;;;;;;;5005274;28;20571;-45
2022/06/05 10:22:15;;;;;;;1.52;0.93;;;;;;;;;;5012798;28;20022;-45
2022/06/05 10:24:48;;;;;;;2.28;0.95;;;;;;;;;;5019731;28;20038;-45
2022/06/05 10:27:15;;;;;;;1.33;1.00;;;;;;;;;;5007456;28;20022;-45
2022/06/05 10:29:46;;;;;;;2.25;0.95;;;;;;;;;;5011153;28;20491;-45
2022/06/05 10:32:17;;;;;;;2.17;0.90;;;;;;;;;;5011005;28;20109;-45
2022/06/05 10:34:46;;;;;;;1.92;1.00;;;;;;;;;;5012062;28;20382;-44
2022/06/05 10:37:17;;;;;;;1.77;1.05;;;;;;;;;;5011246;28;20060;-47
2022/06/05 10:39:59;;;;;;;6.15;1.55;;;;;;;;;;5008244;28;20125;-43
2022/06/05 10:42:38;;;;;;;3.33;1.05;;;;;;;;;;5012174;28;20621;-45
2022/06/05 10:45:07;;;;;;;3.78;1.00;;;;;;;;;;5008102;28;20045;-45
2022/06/05 10:47:42;;;;;;;3.53;1.02;;;;;;;;;;5010997;28;20060;-44
2022/06/05 10:50:11;;;;;;;2.38;1.00;;;;;;;;;;5006470;28;20034;-45
2022/06/05 10:52:37;;;;;;;4.25;1.70;;;;;;;;;;5005045;28;20029;-44
2022/06/05 10:55:19;;;;;;;4.07;2.08;;;;;;;;;;5012759;28;20391;-43
2022/06/05 10:57:56;;;;;;;3.88;1.48;;;;;;;;;;5010138;28;20087;-46
2022/06/05 11:00:28;;;;;;;2.88;1.42;;;;;;;;;;5011481;28;20053;-57
2022/06/05 11:03:08;;;;;;;2.40;1.40;;;;;;;;;;5006932;28;20021;-57
2022/06/05 11:05:46;;;;;;;3.90;1.50;;;;;;;;;;5011121;28;20025;-58
2022/06/05 11:08:24;;;;;;;3.55;1.55;;;;;;;;;;5002310;28;20029;-59
2022/06/05 11:13:44;;;;;;;3.40;1.85;;;;;;;;;;4998987;28;20493;-59
2022/06/05 11:16:13;;;;;;;4.60;2.05;;;;;;;;;;4999980;28;20034;-59
2022/06/05 11:18:45;;;;;;;4.43;1.88;;;;;;;;;;5000977;28;20041;-59
2022/06/05 11:21:13;;;;;;;4.20;2.00;;;;;;;;;;4998792;28;20911;-56
2022/06/05 11:23:41;;;;;;;3.97;2.00;;;;;;;;;;5000144;28;20471;-59
2022/06/05 11:26:13;;;;;;;3.97;1.52;;;;;;;;;;4995789;28;20065;-60
2022/06/05 11:28:45;;;;;;;4.30;1.90;;;;;;;;;;5002065;28;20037;-60
2022/06/05 11:31:14;;;;;;;3.90;1.83;;;;;;;;;;4992215;28;20026;-60
2022/06/05 11:33:51;;;;;;;4.85;2.03;;;;;;;;;;5017576;28;20026;-60
2022/06/05 11:36:33;;;;;;;2.85;2.00;;;;;;;;;;5014594;28;20474;-60
2022/06/05 11:39:02;;;;;;;3.33;2.17;;;;;;;;;;5011055;28;20030;-59
2022/06/05 11:41:39;;;;;;;4.57;1.75;;;;;;;;;;5010838;28;20018;-60
2022/06/05 11:44:13;;;;;;;3.70;1.63;;;;;;;;;;5010395;28;20030;-60
2022/06/05 11:46:48;;;;;;;2.72;1.83;;;;;;;;;;5010664;28;20121;-63
2022/06/05 11:49:20;;;;;;;8.40;1.63;;;;;;;;;;5009108;28;20099;-56
2022/06/05 11:51:46;;;;;;;5.38;2.10;;;;;;;;;;5008961;28;20379;-56
2022/06/05 11:54:21;;;;;;;5.47;2.15;;;;;;;;;;5010335;28;20017;-59
2022/06/05 11:56:54;;;;;;;4.32;1.90;;;;;;;;;;5011109;28;20034;-60
2022/06/05 11:59:30;;;;;;;5.15;2.35;;;;;;;;;;5010700;28;20026;-60
2022/06/05 12:02:01;;;;;;;5.15;2.15;;;;;;;;;;5010240;28;20182;-57
2022/06/05 12:04:45;;;;;;;5.05;2.47;;;;;;;;;;5012819;28;20096;-60
2022/06/05 12:07:12;;;;;;;5.20;1.77;;;;;;;;;;5013678;28;20029;-60
2022/06/05 12:09:48;;;;;;;5.90;2.45;;;;;;;;;;5014415;28;20033;-60
2022/06/05 12:12:21;;;;;;;3.47;1.83;;;;;;;;;;5012097;28;20080;-60
2022/06/05 12:14:47;;;;;;;3.53;2.17;;;;;;;;;;5009764;28;20041;-52
2022/06/05 12:17:32;;;;;;;5.35;1.48;;;;;;;;;;5009753;28;20030;-59
2022/06/05 12:19:59;;;;;;;7.10;2.05;;;;;;;;;;5013680;28;20403;-58
2022/06/05 12:22:54;;;;;;;4.50;1.70;;;;;;;;;;5014407;28;20033;-60
2022/06/05 12:25:20;;;;;;;3.92;1.60;;;;;;;;;;4993822;28;20074;-58
2022/06/05 12:27:54;;;;;;;3.55;1.48;;;;;;;;;;5014430;28;20026;-57
2022/06/05 12:30:43;;;;;;;2.97;1.40;;;;;;;;;;5015457;28;20033;-58
2022/06/05 12:33:13;;;;;;;3.08;1.23;;;;;;;;;;4991577;28;20038;-59
2022/06/05 12:35:40;;;;;;;3.45;1.58;;;;;;;;;;5004355;28;20372;-58
2022/06/05 12:38:24;;;;;;;3.45;1.55;;;;;;;;;;5004231;28;20037;-57
2022/06/05 12:41:16;;;;;;;3.90;1.60;;;;;;;;;;5004924;28;20029;-53
2022/06/05 12:43:42;;;;;;;;;;;;;;;;;;5003241;28;20125;-57
2022/06/05 12:46:26;;;;;;;2.00;1.27;;;;;;;;;;5002925;28;20068;-56
2022/06/05 12:49:04;;;;;;;4.28;1.83;;;;;;;;;;5005665;28;20108;-57
2022/06/05 12:51:32;;;;;;;4.50;1.95;;;;;;;;;;5000271;28;20030;-58
2022/06/05 12:54:16;;;;;;;4.63;1.40;;;;;;;;;;5004184;28;20038;-58
2022/06/05 12:56:44;;;;;;;5.55;2.05;;;;;;;;;;5007541;28;20040;-52
2022/06/05 12:59:17;;;;;;;2.13;1.17;;;;;;;;;;5016450;28;20021;-54
2022/06/05 13:01:50;;;;;;;5.15;1.95;;;;;;;;;;5014034;28;20429;-58
2022/06/05 13:04:19;;;;;;;3.97;1.40;;;;;;;;;;5009898;28;20033;-58
2022/06/05 13:06:53;;;;;;;3.40;1.42;;;;;;;;;;5013139;28;20033;-55
2022/06/05 13:09:26;;;;;;;2.35;1.30;;;;;;;;;;5012066;28;20018;-59
2022/06/05 13:12:00;;;;;;;4.07;1.60;;;;;;;;;;5009832;28;20034;-59
2022/06/05 13:14:41;;;;;;;4.28;1.70;;;;;;;;;;5012397;28;20034;-57
2022/06/05 13:17:07;;;;;;;6.00;1.92;;;;;;;;;;5011757;28;20038;-59
2022/06/05 13:19:39;;;;;;;4.80;1.90;;;;;;;;;;5013495;28;20033;-56
2022/06/05 13:22:04;;;;;;;3.72;1.77;;;;;;;;;;5012692;28;20057;-58
2022/06/05 13:24:50;;;;;;;3.35;2.00;;;;;;;;;;5013062;28;20030;-59
2022/06/05 13:27:30;;;;;;;2.13;1.58;;;;;;;;;;5008280;28;20033;-56
2022/06/05 13:30:10;;;;;;;2.40;1.70;;;;;;;;;;5012541;28;20127;-57
2022/06/05 13:32:39;;;;;;;3.40;1.73;;;;;;;;;;5013052;28;20034;-58
2022/06/05 13:35:22;;;;;;;6.03;1.67;;;;;;;;;;5011379;28;20157;-59
2022/06/05 13:37:52;;;;;;;4.70;1.50;;;;;;;;;;5012879;28;20441;-59
2022/06/05 13:40:26;;;;;;;3.83;1.42;;;;;;;;;;5012215;28;20026;-60
2022/06/05 13:42:53;;;;;;;4.50;1.52;;;;;;;;;;5012538;28;20033;-59
2022/06/05 13:45:22;;;;;;;4.43;1.35;;;;;;;;;;5011520;28;20030;-60
2022/06/05 13:48:21;;;;;;;4.55;1.40;;;;;;;;;;5012901;28;20030;-58
2022/06/05 13:50:57;;;;;;;2.42;1.60;;;;;;;;;;4979346;28;20379;-59
2022/06/05 13:53:32;;;;;;;3.97;2.17;;;;;;;;;;5011962;28;20778;-59
2022/06/05 13:56:06;;;;;;;3.58;1.60;;;;;;;;;;5009611;28;20076;-59
2022/06/05 13:58:53;;;;;;;3.63;1.70;;;;;;;;;;5012622;28;20105;-58
2022/06/05 14:01:36;;;;;;;2.40;1.52;;;;;;;;;;5008908;28;20026;-58
2022/06/05 14:04:31;;;;;;;2.80;1.45;;;;;;;;;;5012598;28;20375;-58
2022/06/05 14:07:00;;;;;;;2.78;1.88;;;;;;;;;;4999368;28;20505;-58
2022/06/05 14:09:33;;;;;;;3.75;1.90;;;;;;;;;;5011019;28;20028;-58
2022/06/05 14:11:59;;;;;;;4.30;1.50;;;;;;;;;;5007452;28;20072;-57
2022/06/05 14:14:41;;;;;;;5.40;1.88;;;;;;;;;;5011453;28;20549;-58
2022/06/05 14:17:09;;;;;;;3.78;1.90;;;;;;;;;;5011090;28;20056;-58
2022/06/05 14:19:37;;;;;;;3.55;1.42;;;;;;;;;;5011705;28;20467;-57
2022/06/05 14:22:20;;;;;;;2.22;1.48;;;;;;;;;;5011828;28;20033;-57
2022/06/05 14:24:46;;;;;;;3.58;1.80;;;;;;;;;;5011802;28;20390;-57
2022/06/05 14:27:14;;;;;;;3.55;1.80;;;;;;;;;;5010842;28;20022;-57
2022/06/05 14:29:44;;;;;;;3.30;1.60;;;;;;;;;;5011675;28;20045;-57
2022/06/05 14:32:16;;;;;;;3.28;1.60;;;;;;;;;;5011406;28;20465;-58
2022/06/05 14:34:44;;;;;;;2.67;1.48;;;;;;;;;;5011972;28;20048;-58
2022/06/05 14:37:19;;;;;;;2.83;1.55;;;;;;;;;;5011125;28;20030;-58
2022/06/05 14:39:46;;;;;;;2.53;1.42;;;;;;;;;;5011746;28;20026;-58
2022/06/05 14:42:31;;;;;;;2.90;1.45;;;;;;;;;;5011500;28;20093;-57
2022/06/05 14:44:58;;;;;;;2.55;1.30;;;;;;;;;;5011705;28;20113;-58
2022/06/05 14:47:33;;;;;;;3.47;1.65;;;;;;;;;;5010629;28;20077;-58
2022/06/05 14:50:02;;;;;;;1.98;1.50;;;;;;;;;;5011556;28;20022;-58
2022/06/05 14:52:46;;;;;;;2.80;1.83;;;;;;;;;;5011490;28;20030;-57
2022/06/05 14:58:29;;;;;;;3.08;1.70;;;;;;;;;;5000979;28;20553;-57
2022/06/05 15:01:13;;;;;;;3.28;1.48;;;;;;;;;;5000814;28;20113;-58
2022/06/05 15:03:58;;;;;;;3.60;1.70;;;;;;;;;;5001233;28;20042;-58
2022/06/05 15:06:29;;;;;;;2.55;1.48;;;;;;;;;;4996585;28;20802;-57
2022/06/05 15:09:03;;;;;;;3.72;1.50;;;;;;;;;;5002865;28;20029;-57
2022/06/05 15:11:33;;;;;;;2.63;1.48;;;;;;;;;;4997087;28;20045;-53
2022/06/05 15:14:17;;;;;;;3.40;1.75;;;;;;;;;;4999166;28;20019;-57
2022/06/05 15:16:46;;;;;;;2.17;1.55;;;;;;;;;;5002245;28;20045;-55
2022/06/05 15:19:21;;;;;;;1.98;1.40;;;;;;;;;;4999786;28;20053;-56
2022/06/05 15:21:55;;;;;;;2.75;1.70;;;;;;;;;;4999565;28;20025;-57